createdAt,value
2023-04-25T00:00:15.339Z,95574.00
2023-04-25T00:02:42.949Z,95553.34
2023-04-25T00:05:10.367Z,95579.84
2023-04-25T00:07:37.499Z,95572.16
2023-04-25T00:10:05.041Z,95563.22
2023-04-25T00:12:31.940Z,95535.38
2023-04-25T00:14:59.259Z,95557.56
2023-04-25T00:17:26.149Z,95558.19
2023-04-25T00:19:53.770Z,95552.44
2023-04-25T00:22:20.625Z,95525.03
2023-04-25T00:24:47.722Z,95519.00
2023-04-25T00:27:15.526Z,95523.00
2023-04-25T00:29:42.426Z,95550.91
2023-04-25T00:32:09.950Z,95530.75
2023-04-25T00:34:37.230Z,95534.41
2023-04-25T00:37:04.210Z,95550.72
2023-04-25T00:39:31.095Z,95553.75
2023-04-25T00:41:58.914Z,95538.03
2023-04-25T00:44:26.250Z,95528.19
2023-04-25T00:46:54.292Z,95541.84
2023-04-25T00:49:21.368Z,95522.16
2023-04-25T00:51:48.482Z,95542.06
2023-04-25T00:54:15.691Z,95515.75
2023-04-25T00:56:42.757Z,95521.31
2023-04-25T00:59:11.268Z,95511.03
2023-04-25T01:01:40.712Z,95501.31
2023-04-25T01:04:08.086Z,95508.09
2023-04-25T01:06:35.762Z,95507.78
2023-04-25T01:09:03.299Z,95525.94
2023-04-25T01:11:30.189Z,95520.50
2023-04-25T01:13:57.129Z,95502.19
2023-04-25T01:16:28.025Z,95514.19
2023-04-25T01:18:56.240Z,95473.72
2023-04-25T01:21:23.217Z,95477.59
2023-04-25T01:23:50.391Z,95485.53
2023-04-25T01:26:18.021Z,95491.03
2023-04-25T01:28:45.413Z,95479.06
2023-04-25T01:31:13.316Z,95517.03
2023-04-25T01:33:40.445Z,95500.56
2023-04-25T01:36:07.641Z,95492.09
2023-04-25T01:38:36.474Z,95502.91
2023-04-25T01:41:03.739Z,95470.19
2023-04-25T01:43:30.885Z,95501.56
2023-04-25T01:45:58.263Z,95485.09
2023-04-25T01:48:25.372Z,95514.41
2023-04-25T01:50:52.324Z,95495.91
2023-04-25T01:53:19.218Z,95485.31
2023-04-25T01:55:46.781Z,95510.13
2023-04-25T01:58:16.510Z,95525.97
2023-04-25T02:01:06.725Z,95507.31
2023-04-25T02:03:41.474Z,95525.78
2023-04-25T02:06:14.752Z,95521.34
2023-04-25T02:08:44.720Z,95501.22
2023-04-25T02:11:13.088Z,95505.19
2023-04-25T02:13:46.193Z,95526.59
2023-04-25T02:16:33.389Z,95478.13
2023-04-25T02:19:01.670Z,95523.84
2023-04-25T02:21:31.674Z,95488.94
2023-04-25T02:23:58.860Z,95511.88
2023-04-25T02:26:28.418Z,95506.28
2023-04-25T02:28:55.274Z,95475.50
2023-04-25T02:31:22.101Z,95512.97
2023-04-25T02:33:49.437Z,95507.41
2023-04-25T02:36:16.482Z,95491.06
2023-04-25T02:38:43.330Z,95470.19
2023-04-25T02:41:10.207Z,95460.78
2023-04-25T02:43:37.022Z,95505.91
2023-04-25T02:46:03.889Z,95479.59
2023-04-25T02:48:30.861Z,95448.16
2023-04-25T02:50:57.726Z,95457.25
2023-04-25T02:53:24.630Z,95438.78
2023-04-25T02:55:54.058Z,95460.66
2023-04-25T02:58:21.209Z,95487.53
2023-04-25T03:00:50.802Z,95488.31
2023-04-25T03:03:23.158Z,95465.06
2023-04-25T03:05:52.316Z,95486.63
2023-04-25T03:08:24.212Z,95447.66
2023-04-25T03:10:52.765Z,95474.25
2023-04-25T03:13:19.594Z,95473.19
2023-04-25T03:15:46.888Z,95451.50
2023-04-25T03:18:13.727Z,95424.72
2023-04-25T03:20:42.886Z,95461.63
2023-04-25T03:23:10.050Z,95478.41
2023-04-25T03:25:39.244Z,95448.44
2023-04-25T03:28:06.320Z,95454.47
2023-04-25T03:30:33.343Z,95391.28
2023-04-25T03:33:00.668Z,95466.22
2023-04-25T03:35:27.664Z,95428.50
2023-04-25T03:37:55.173Z,95417.41
2023-04-25T03:40:27.288Z,95444.16
2023-04-25T03:43:20.461Z,95421.53
2023-04-25T03:45:56.171Z,95460.66
2023-04-25T03:48:25.937Z,95433.97
2023-04-25T03:50:55.414Z,95457.34
2023-04-25T03:53:22.326Z,95419.38
2023-04-25T03:56:08.206Z,95416.81
2023-04-25T03:58:37.293Z,95423.03
2023-04-25T04:01:08.605Z,95418.88
2023-04-25T04:03:38.394Z,95410.81
2023-04-25T04:06:07.167Z,95460.34
2023-04-25T04:08:37.749Z,95424.16
2023-04-25T04:11:04.772Z,95418.94
2023-04-25T04:13:32.419Z,95441.66
2023-04-25T04:15:59.401Z,95445.81
2023-04-25T04:18:26.659Z,95422.72
2023-04-25T04:20:54.227Z,95420.91
2023-04-25T04:23:21.895Z,95429.94
2023-04-25T04:25:49.260Z,95459.03
2023-04-25T04:28:29.229Z,95436.16
2023-04-25T04:31:07.311Z,95455.22
2023-04-25T04:33:34.562Z,95449.53
2023-04-25T04:36:05.349Z,95458.94
2023-04-25T04:38:33.373Z,95404.63
2023-04-25T04:41:03.609Z,95429.69
2023-04-25T04:44:02.348Z,95437.25
2023-04-25T04:46:43.496Z,95423.72
2023-04-25T04:49:33.984Z,95393.28
2023-04-25T04:52:20.615Z,95454.31
2023-04-25T04:54:53.608Z,95457.06
2023-04-25T04:57:34.279Z,95444.28
2023-04-25T05:00:25.183Z,95456.25
2023-04-25T05:02:57.092Z,95464.34
2023-04-25T05:05:41.232Z,95464.53
2023-04-25T05:08:34.169Z,95466.31
2023-04-25T05:11:23.580Z,95468.25
2023-04-25T05:14:04.989Z,95471.25
2023-04-25T05:16:54.888Z,95463.81
2023-04-25T05:19:55.362Z,95463.13
2023-04-25T05:22:45.263Z,95455.69
2023-04-25T05:25:16.985Z,95401.63
2023-04-25T05:27:49.660Z,95457.16
2023-04-25T05:30:36.023Z,95458.50
2023-04-25T05:33:10.397Z,95422.84
2023-04-25T05:35:38.438Z,95460.41
2023-04-25T05:38:05.401Z,95430.59
2023-04-25T05:40:52.166Z,95442.28
2023-04-25T05:43:37.709Z,95464.38
2023-04-25T05:46:21.140Z,95423.41
2023-04-25T05:49:08.266Z,95429.91
2023-04-25T05:51:41.774Z,95448.06
2023-04-25T05:54:26.679Z,95466.22
2023-04-25T05:56:55.051Z,95470.69
2023-04-25T05:59:21.925Z,95419.97
2023-04-25T06:01:48.735Z,95455.75
2023-04-25T06:04:15.813Z,95465.50
2023-04-25T06:06:42.858Z,95444.88
2023-04-25T06:09:09.811Z,95451.56
2023-04-25T06:11:36.713Z,95483.25
2023-04-25T06:14:06.923Z,95466.66
2023-04-25T06:16:35.678Z,95479.44
2023-04-25T06:19:02.631Z,95447.19
2023-04-25T06:21:29.537Z,95474.50
2023-04-25T06:23:56.452Z,95450.72
2023-04-25T06:26:24.375Z,95439.31
2023-04-25T06:28:51.289Z,95481.97
2023-04-25T06:31:18.202Z,95494.19
2023-04-25T06:33:46.569Z,95465.78
2023-04-25T06:36:13.659Z,95496.03
2023-04-25T06:38:41.884Z,95468.66
2023-04-25T06:41:08.748Z,95491.19
2023-04-25T06:43:37.510Z,95478.44
2023-04-25T06:46:17.574Z,95478.34
2023-04-25T06:48:47.834Z,95499.72
2023-04-25T06:51:14.701Z,95500.53
2023-04-25T06:53:42.797Z,95489.94
2023-04-25T06:56:15.581Z,95475.63
2023-04-25T06:58:52.636Z,95511.97
2023-04-25T07:01:31.669Z,95503.94
2023-04-25T07:04:00.717Z,95513.66
2023-04-25T07:06:29.301Z,95514.09
2023-04-25T07:08:56.928Z,95490.41
2023-04-25T07:11:24.436Z,95517.81
2023-04-25T07:13:51.308Z,95515.97
2023-04-25T07:16:18.783Z,95503.81
2023-04-25T07:18:46.623Z,95494.41
2023-04-25T07:21:14.991Z,95512.75
2023-04-25T07:23:44.099Z,95505.81
2023-04-25T07:26:15.741Z,95488.69
2023-04-25T07:29:02.545Z,95502.03
2023-04-25T07:31:29.589Z,95502.00
2023-04-25T07:33:56.448Z,95489.66
2023-04-25T07:36:23.332Z,95525.13
2023-04-25T07:38:51.200Z,95520.34
2023-04-25T07:41:18.372Z,95507.44
2023-04-25T07:43:45.432Z,95529.09
2023-04-25T07:46:12.418Z,95517.28
2023-04-25T07:48:39.401Z,95519.84
2023-04-25T07:51:06.459Z,95535.22
2023-04-25T07:53:36.060Z,95544.06
2023-04-25T07:56:07.366Z,95526.13
2023-04-25T07:58:37.426Z,95545.69
2023-04-25T08:01:06.206Z,95537.47
2023-04-25T08:03:36.111Z,95548.19
2023-04-25T08:06:08.305Z,95501.94
2023-04-25T08:08:43.410Z,95565.50
2023-04-25T08:11:13.484Z,95564.13
2023-04-25T08:13:40.847Z,95529.66
2023-04-25T08:16:07.817Z,95559.06
2023-04-25T08:18:35.532Z,95529.19
2023-04-25T08:21:02.854Z,95573.63
2023-04-25T08:23:30.646Z,95579.25
2023-04-25T08:26:12.323Z,95549.97
2023-04-25T08:28:40.610Z,95576.00
2023-04-25T08:31:07.992Z,95583.09
2023-04-25T08:33:47.368Z,95583.97
2023-04-25T08:36:38.618Z,95561.44
2023-04-25T08:39:18.157Z,95590.06
2023-04-25T08:42:00.224Z,95592.28
2023-04-25T08:44:28.137Z,95595.16
2023-04-25T08:46:56.822Z,95595.41
2023-04-25T08:49:32.899Z,95582.03
2023-04-25T08:52:01.957Z,95571.19
2023-04-25T08:54:35.765Z,95607.19
2023-04-25T08:57:05.724Z,95594.38
2023-04-25T08:59:34.495Z,95619.91
2023-04-25T09:02:02.420Z,95615.69
2023-04-25T09:04:32.964Z,95613.81
2023-04-25T09:07:00.028Z,95612.28
2023-04-25T09:09:27.283Z,95622.72
2023-04-25T09:11:55.926Z,95634.09
2023-04-25T09:14:27.090Z,95609.06
2023-04-25T09:17:23.370Z,95607.81
2023-04-25T09:19:53.868Z,95628.94
2023-04-25T09:22:27.697Z,95633.16
2023-04-25T09:24:54.696Z,95613.72
2023-04-25T09:27:26.392Z,95636.88
2023-04-25T09:30:02.117Z,95626.19
2023-04-25T09:32:45.129Z,95648.91
2023-04-25T09:35:12.885Z,95661.63
2023-04-25T09:37:41.708Z,95643.97
2023-04-25T09:40:46.215Z,95656.19
2023-04-25T09:43:26.492Z,95656.06
2023-04-25T09:45:59.218Z,95643.72
2023-04-25T09:48:28.218Z,95638.16
2023-04-25T09:51:09.795Z,95661.72
2023-04-25T09:53:45.176Z,95653.75
2023-04-25T09:56:18.079Z,95661.75
2023-04-25T09:58:44.929Z,95646.34
2023-04-25T10:01:12.830Z,95654.75
2023-04-25T10:03:58.076Z,95660.69
2023-04-25T10:06:37.803Z,95625.13
2023-04-25T10:09:05.620Z,95646.53
2023-04-25T10:11:34.095Z,95615.75
2023-04-25T10:14:01.952Z,95655.44
2023-04-25T10:16:30.020Z,95642.25
2023-04-25T10:18:57.069Z,95640.84
2023-04-25T10:21:25.655Z,95663.13
2023-04-25T10:23:53.265Z,95654.41
2023-04-25T10:26:20.729Z,95671.28
2023-04-25T10:29:02.133Z,95673.03
2023-04-25T10:31:32.060Z,95666.56
2023-04-25T10:34:01.853Z,95663.75
2023-04-25T10:36:33.172Z,95678.13
2023-04-25T10:39:08.073Z,95656.72
2023-04-25T10:41:48.269Z,95675.03
2023-04-25T10:44:15.707Z,95662.59
2023-04-25T10:46:42.715Z,95647.03
2023-04-25T10:49:12.576Z,95641.38
2023-04-25T10:51:54.519Z,95651.38
2023-04-25T10:54:26.344Z,95647.22
2023-04-25T10:56:54.430Z,95649.31
2023-04-25T10:59:22.677Z,95656.06
2023-04-25T11:01:53.649Z,95640.94
2023-04-25T11:04:33.671Z,95653.78
2023-04-25T11:07:07.114Z,95648.59
2023-04-25T11:09:41.859Z,95649.44
2023-04-25T11:12:10.331Z,95633.25
2023-04-25T11:14:37.461Z,95664.72
2023-04-25T11:17:04.715Z,95647.09
2023-04-25T11:19:31.826Z,95649.41
2023-04-25T11:22:02.562Z,95648.47
2023-04-25T11:24:29.458Z,95659.69
2023-04-25T11:26:56.641Z,95662.09
2023-04-25T11:29:24.808Z,95629.69
2023-04-25T11:31:51.987Z,95667.94
2023-04-25T11:34:19.800Z,95654.22
2023-04-25T11:36:47.641Z,95668.31
2023-04-25T11:39:14.813Z,95616.09
2023-04-25T11:41:44.420Z,95666.41
2023-04-25T11:44:13.237Z,95633.94
2023-04-25T11:46:40.132Z,95667.50
2023-04-25T11:49:07.037Z,95655.84
2023-04-25T11:51:45.302Z,95670.84
2023-04-25T11:54:13.019Z,95649.97
2023-04-25T11:56:44.346Z,95678.91
2023-04-25T11:59:12.123Z,95681.69
2023-04-25T12:01:41.868Z,95666.25
2023-04-25T12:04:17.077Z,95682.72
2023-04-25T12:06:47.930Z,95686.91
2023-04-25T12:09:16.980Z,95689.34
2023-04-25T12:11:48.782Z,95695.50
2023-04-25T12:14:30.057Z,95687.97
2023-04-25T12:17:01.196Z,95679.28
2023-04-25T12:19:34.553Z,95657.06
2023-04-25T12:22:02.635Z,95701.94
2023-04-25T12:24:29.752Z,95700.63
2023-04-25T12:27:01.029Z,95707.91
2023-04-25T12:29:34.738Z,95708.69
2023-04-25T12:32:05.795Z,95716.69
2023-04-25T12:34:33.567Z,95681.50
2023-04-25T12:37:00.748Z,95703.75
2023-04-25T12:39:27.579Z,95698.56
2023-04-25T12:41:57.309Z,95695.09
2023-04-25T12:44:24.187Z,95668.66
2023-04-25T12:46:51.277Z,95698.38
2023-04-25T12:49:19.379Z,95716.50
2023-04-25T12:51:46.555Z,95731.06
2023-04-25T12:54:13.769Z,95700.00
2023-04-25T12:56:41.927Z,95698.69
2023-04-25T12:59:08.924Z,95709.25
2023-04-25T13:01:36.780Z,95724.50
2023-04-25T13:04:04.388Z,95735.91
2023-04-25T13:06:32.175Z,95702.97
2023-04-25T13:08:59.140Z,95714.84
2023-04-25T13:11:26.012Z,95732.63
2023-04-25T13:13:53.217Z,95734.16
2023-04-25T13:16:22.236Z,95738.25
2023-04-25T13:18:49.698Z,95710.44
2023-04-25T13:21:16.725Z,95743.28
2023-04-25T13:23:47.951Z,95711.25
2023-04-25T13:26:14.866Z,95748.22
2023-04-25T13:28:43.597Z,95714.19
2023-04-25T13:31:11.922Z,95713.19
2023-04-25T13:33:38.822Z,95746.59
2023-04-25T13:36:06.700Z,95741.53
2023-04-25T13:38:33.754Z,95739.09
2023-04-25T13:41:00.831Z,95727.03
2023-04-25T13:43:27.739Z,95754.69
2023-04-25T13:45:54.691Z,95748.66
2023-04-25T13:48:22.056Z,95720.75
2023-04-25T13:50:48.959Z,95730.75
2023-04-25T13:53:15.802Z,95757.22
2023-04-25T13:55:42.723Z,95763.16
2023-04-25T13:58:11.291Z,95761.97
2023-04-25T14:00:40.515Z,95763.34
2023-04-25T14:03:11.249Z,95768.94
2023-04-25T14:05:39.411Z,95770.41
2023-04-25T14:08:08.300Z,95778.19
2023-04-25T14:10:35.444Z,95781.41
2023-04-25T14:13:04.481Z,95762.09
2023-04-25T14:15:33.661Z,95786.34
2023-04-25T14:18:01.841Z,95789.63
2023-04-25T14:20:29.087Z,95786.66
2023-04-25T14:22:57.283Z,95785.00
2023-04-25T14:25:24.851Z,95790.28
2023-04-25T14:27:51.856Z,95784.78
2023-04-25T14:30:20.360Z,95804.03
2023-04-25T14:32:47.620Z,95800.06
2023-04-25T14:35:14.572Z,95796.50
2023-04-25T14:37:41.615Z,95781.09
2023-04-25T14:40:14.359Z,95804.41
2023-04-25T14:42:41.475Z,95815.94
2023-04-25T14:45:12.740Z,95793.38
2023-04-25T14:47:40.021Z,95810.97
2023-04-25T14:50:08.367Z,95822.59
2023-04-25T14:52:35.750Z,95817.78
2023-04-25T14:55:06.196Z,95816.56
2023-04-25T14:57:36.280Z,95801.78
2023-04-25T15:00:06.210Z,95811.63
2023-04-25T15:02:33.268Z,95781.03
2023-04-25T15:05:00.411Z,95820.88
2023-04-25T15:07:27.530Z,95821.84
2023-04-25T15:09:55.137Z,95816.97
2023-04-25T15:12:22.196Z,95775.38
2023-04-25T15:14:49.090Z,95798.75
2023-04-25T15:17:16.145Z,95822.69
2023-04-25T15:19:43.077Z,95798.50
2023-04-25T15:22:10.318Z,95812.06
2023-04-25T15:24:37.313Z,95809.53
2023-04-25T15:27:05.704Z,95784.41
2023-04-25T15:29:35.219Z,95759.16
2023-04-25T15:32:05.610Z,95828.75
2023-04-25T15:34:34.146Z,95819.00
2023-04-25T15:37:02.151Z,95795.16
2023-04-25T15:39:29.016Z,95809.78
2023-04-25T15:41:56.492Z,95817.41
2023-04-25T15:44:23.348Z,95834.84
2023-04-25T15:46:50.288Z,95833.34
2023-04-25T15:49:17.152Z,95828.06
2023-04-25T15:51:45.191Z,95842.72
2023-04-25T15:54:12.116Z,95835.41
2023-04-25T15:56:39.201Z,95838.81
2023-04-25T15:59:06.324Z,95832.56
2023-04-25T16:01:33.480Z,95841.00
2023-04-25T16:04:00.452Z,95868.53
2023-04-25T16:06:27.995Z,95864.97
2023-04-25T16:08:55.410Z,95828.44
2023-04-25T16:11:22.390Z,95859.41
2023-04-25T16:13:50.307Z,95864.47
2023-04-25T16:16:17.457Z,95851.09
2023-04-25T16:18:44.453Z,95863.66
2023-04-25T16:21:12.048Z,95847.53
2023-04-25T16:23:38.889Z,95885.75
2023-04-25T16:26:05.960Z,95859.78
2023-04-25T16:28:32.825Z,95850.47
2023-04-25T16:30:59.800Z,95864.72
2023-04-25T16:33:27.032Z,95879.13
2023-04-25T16:35:54.043Z,95885.66
2023-04-25T16:38:21.978Z,95892.19
2023-04-25T16:40:48.902Z,95866.13
2023-04-25T16:43:20.037Z,95892.03
2023-04-25T16:45:46.979Z,95872.97
2023-04-25T16:48:13.848Z,95890.69
2023-04-25T16:50:41.064Z,95883.16
2023-04-25T16:53:07.940Z,95914.03
2023-04-25T16:55:34.784Z,95902.34
2023-04-25T16:58:01.851Z,95885.53
2023-04-25T17:00:28.794Z,95891.88
2023-04-25T17:02:55.866Z,95919.38
2023-04-25T17:05:25.143Z,95897.00
2023-04-25T17:07:52.516Z,95877.06
2023-04-25T17:10:19.624Z,95882.97
2023-04-25T17:12:47.867Z,95878.16
2023-04-25T17:15:14.786Z,95903.22
2023-04-25T17:17:42.061Z,95901.63
2023-04-25T17:20:13.795Z,95909.63
2023-04-25T17:22:41.081Z,95906.59
2023-04-25T17:25:09.768Z,95929.00
2023-04-25T17:27:39.528Z,95934.06
2023-04-25T17:30:07.454Z,95921.25
2023-04-25T17:32:34.847Z,95908.59
2023-04-25T17:35:01.794Z,95947.22
2023-04-25T17:37:28.935Z,95937.59
2023-04-25T17:39:55.888Z,95892.13
2023-04-25T17:42:22.782Z,95906.66
2023-04-25T17:44:50.027Z,95943.72
2023-04-25T17:47:17.494Z,95944.81
2023-04-25T17:49:44.520Z,95928.13
2023-04-25T17:52:11.560Z,95947.09
2023-04-25T17:54:38.732Z,95955.31
2023-04-25T17:57:05.793Z,95941.72
2023-04-25T17:59:32.726Z,95935.72
2023-04-25T18:02:01.245Z,95964.28
2023-04-25T18:04:28.273Z,95932.47
2023-04-25T18:06:55.863Z,95959.94
2023-04-25T18:09:23.984Z,95971.97
2023-04-25T18:11:53.188Z,95972.28
2023-04-25T18:14:21.611Z,95974.94
2023-04-25T18:16:50.858Z,95980.97
2023-04-25T18:19:26.856Z,95985.78
2023-04-25T18:21:55.074Z,95986.81
2023-04-25T18:24:24.553Z,95992.38
2023-04-25T18:26:52.186Z,95980.03
2023-04-25T18:29:31.486Z,95973.69
2023-04-25T18:32:00.508Z,95984.97
2023-04-25T18:34:27.784Z,95974.31
2023-04-25T18:36:56.610Z,95995.63
2023-04-25T18:39:24.706Z,96018.50
2023-04-25T18:41:58.792Z,96017.56
2023-04-25T18:44:29.405Z,96033.06
2023-04-25T18:46:56.331Z,96027.31
2023-04-25T18:49:23.476Z,95997.16
2023-04-25T18:51:51.492Z,96017.91
2023-04-25T18:54:18.322Z,96022.38
2023-04-25T18:56:45.150Z,96055.75
2023-04-25T18:59:12.316Z,96067.94
2023-04-25T19:01:39.224Z,96048.78
2023-04-25T19:04:07.253Z,96063.91
2023-04-25T19:06:34.199Z,96045.97
2023-04-25T19:09:01.524Z,96049.78
2023-04-25T19:11:28.699Z,96046.53
2023-04-25T19:13:58.362Z,96062.06
2023-04-25T19:16:26.726Z,96064.56
2023-04-25T19:18:55.582Z,96059.59
2023-04-25T19:21:22.882Z,96024.72
2023-04-25T19:23:50.287Z,96076.69
2023-04-25T19:26:17.323Z,96077.00
2023-04-25T19:28:45.126Z,96065.69
2023-04-25T19:31:13.055Z,96057.22
2023-04-25T19:33:39.971Z,96074.72
2023-04-25T19:36:07.149Z,96080.88
2023-04-25T19:38:34.013Z,96079.31
2023-04-25T19:41:01.461Z,96073.41
2023-04-25T19:43:28.317Z,96082.72
2023-04-25T19:45:55.244Z,96086.38
2023-04-25T19:48:22.326Z,96051.44
2023-04-25T19:50:49.300Z,96083.53
2023-04-25T19:53:16.221Z,96078.47
2023-04-25T19:55:44.352Z,96078.75
2023-04-25T19:58:11.431Z,96051.38
2023-04-25T20:00:38.302Z,96066.50
2023-04-25T20:03:05.404Z,96088.16
2023-04-25T20:05:32.789Z,96093.03
2023-04-25T20:07:59.675Z,96066.63
2023-04-25T20:10:26.512Z,96060.03
2023-04-25T20:12:54.735Z,96082.88
2023-04-25T20:15:22.030Z,96107.22
2023-04-25T20:17:48.950Z,96101.50
2023-04-25T20:20:17.083Z,96082.84
2023-04-25T20:22:44.031Z,96106.91
2023-04-25T20:25:12.325Z,96111.25
2023-04-25T20:27:39.261Z,96117.34
2023-04-25T20:30:08.414Z,96117.63
2023-04-25T20:32:36.721Z,96075.97
2023-04-25T20:35:05.890Z,96111.75
2023-04-25T20:37:33.439Z,96098.78
2023-04-25T20:40:01.590Z,96117.72
2023-04-25T20:42:28.528Z,96084.25
2023-04-25T20:44:56.144Z,96110.41
2023-04-25T20:47:23.195Z,96116.41
2023-04-25T20:49:50.293Z,96107.25
2023-04-25T20:52:17.507Z,96115.13
2023-04-25T20:54:46.331Z,96117.94
2023-04-25T20:57:13.265Z,96114.31
2023-04-25T20:59:40.148Z,96092.03
2023-04-25T21:02:10.654Z,96088.41
2023-04-25T21:04:37.723Z,96123.59
2023-04-25T21:07:04.694Z,96125.97
2023-04-25T21:09:31.549Z,96091.50
2023-04-25T21:11:58.479Z,96090.53
2023-04-25T21:14:25.842Z,96128.84
2023-04-25T21:16:52.782Z,96135.69
2023-04-25T21:19:19.582Z,96129.34
2023-04-25T21:21:46.523Z,96107.75
2023-04-25T21:24:14.611Z,96111.91
2023-04-25T21:26:41.572Z,96108.63
2023-04-25T21:29:08.582Z,96132.66
2023-04-25T21:31:37.759Z,96119.59
2023-04-25T21:34:06.759Z,96134.75
2023-04-25T21:36:34.357Z,96129.50
2023-04-25T21:39:01.614Z,96091.91
2023-04-25T21:41:28.641Z,96101.97
2023-04-25T21:43:56.128Z,96109.13
2023-04-25T21:46:24.678Z,96131.34
2023-04-25T21:48:51.882Z,96119.41
2023-04-25T21:51:19.790Z,96117.09
2023-04-25T21:53:47.008Z,96122.53
2023-04-25T21:56:13.884Z,96144.91
2023-04-25T21:58:40.862Z,96128.78
2023-04-25T22:01:07.777Z,96119.41
2023-04-25T22:03:34.882Z,96124.56
2023-04-25T22:06:02.006Z,96013.44
2023-04-25T22:08:28.855Z,96050.75
2023-04-25T22:10:56.070Z,96130.00
2023-04-25T22:13:23.054Z,96144.75
2023-04-25T22:15:49.976Z,96156.16
2023-04-25T22:18:16.893Z,96154.69
2023-04-25T22:20:44.487Z,96126.94
2023-04-25T22:23:12.306Z,96129.06
2023-04-25T22:25:39.188Z,96158.63
2023-04-25T22:28:06.220Z,96159.72
2023-04-25T22:30:33.221Z,96152.94
2023-04-25T22:33:00.359Z,96152.50
2023-04-25T22:35:27.309Z,96124.72
2023-04-25T22:37:54.598Z,96153.38
2023-04-25T22:40:22.286Z,96136.25
2023-04-25T22:42:49.192Z,96155.75
2023-04-25T22:45:16.331Z,96130.03
2023-04-25T22:47:43.366Z,96145.69
2023-04-25T22:50:14.780Z,96158.88
2023-04-25T22:52:42.821Z,96143.91
2023-04-25T22:55:11.030Z,96167.00
2023-04-25T22:57:40.804Z,96139.19
2023-04-25T23:00:16.065Z,96139.41
2023-04-25T23:02:46.428Z,96173.19
2023-04-25T23:05:15.089Z,96160.47
2023-04-25T23:07:42.665Z,96152.53
2023-04-25T23:10:09.918Z,96128.53
2023-04-25T23:12:37.102Z,96153.13
2023-04-25T23:15:05.436Z,96155.56
2023-04-25T23:17:32.886Z,96173.59
2023-04-25T23:19:59.831Z,96158.22
2023-04-25T23:22:26.748Z,96146.31
2023-04-25T23:24:53.683Z,96167.34
2023-04-25T23:27:20.517Z,96132.25
2023-04-25T23:29:54.868Z,96134.00
2023-04-25T23:32:22.531Z,96167.53
2023-04-25T23:34:49.639Z,96162.41
2023-04-25T23:37:16.634Z,96138.56
2023-04-25T23:39:53.389Z,96175.31
2023-04-25T23:42:20.566Z,96141.06
2023-04-25T23:44:47.550Z,96147.00
2023-04-25T23:47:19.232Z,96144.19
2023-04-25T23:49:46.132Z,96170.09
2023-04-25T23:52:13.337Z,96162.22
2023-04-25T23:54:40.499Z,96181.22
2023-04-25T23:57:07.427Z,96168.88
2023-04-25T23:59:34.334Z,96182.84
